Bremerton, WA (98310)

3:33 PM PST on February 12, 2016 (GMT -0800)
Roswell Drive | | Change Station
CLOSE
Current Station
Personal Weather Station
Location: Bremerton, WA
Elevation: 368 ft
Nearby Weather Stations

Elev 368 ft 47.60 °N, 122.63 °W | Updated 4 minutes ago

Partly Cloudy
Partly Cloudy
59.2 °F
Feels Like 59.2 °F
N
3.7
Wind Variable Wind from ESE

Today
High -- | Low -- °F
--% Chance of Precip.
Yesterday
High -- | Low -- °F
Precip. -- in
Pressure 30.17 in
Visibility 10.0 miles
Clouds Few 3200 ft
Mostly Cloudy 4200 ft
Mostly Cloudy 4800 ft
Dew Point 50 °F
Humidity 72%
Rainfall 0.72 in
Snow Depth Not available.
7:21 AM 5:28 PM
Waxing Crescent, 24% visible
METAR KPWT 122315Z AUTO 21016KT 10SM FEW032 BKN042 BKN048 12/08 A3017 RMK AO1
Pressure 30.17 in
Visibility 10.0 miles
Clouds Few 3200 ft
Mostly Cloudy 4200 ft
Mostly Cloudy 4800 ft
Dew Point 50 °F
Humidity 72%
Rainfall 0.72 in
Snow Depth Not available.
7:21 AM 5:28 PM
Waxing Crescent, 24% visible
METAR KPWT 122315Z AUTO 21016KT 10SM FEW032 BKN042 BKN048 12/08 A3017 RMK AO1

10-Day Weather Forecast

Almanac

Astronomy

Feb. 12, 2016 Rise Set
Actual Time
Civil Twilight
Nautical Twilight
Astronomical Twilight
Moon
Length of Visible Light
Length of Day
Tomorrow will be .
, % of the Moon is Illuminated

Today's Extremes

State Highs State Lows

Community

WunderPhotos

Upload Photos

1,892,437 photos uploaded!

WunderBlog® & News

Nearby

Air Quality

  Air Quality AQ Index Pollutant
Not available.

Snow Depth

Station Depth Elevation

Earthquake Activity

City Distance Mag. Time & Date
Minimum magnitude displayed is 2.5.

Coastal Water Temperatures

Place Temperature

Stations

Nearby Weather Stations

Station Location Temp. Windchill Dew Point Humidity Wind Precip. Elev Updated Type
                   

Watches & Warnings

There are currently no watches in effect.